createdAt,value
2022-10-01T00:01:26.707Z,3.10
2022-10-01T00:04:29.133Z,3.78
2022-10-01T00:07:31.297Z,3.72
2022-10-01T00:10:33.664Z,3.55
2022-10-01T00:13:36.404Z,3.88
2022-10-01T00:16:39.978Z,4.30
2022-10-01T00:19:42.286Z,3.60
2022-10-01T00:22:44.551Z,4.68
2022-10-01T00:25:46.851Z,5.40
2022-10-01T00:28:54.043Z,3.40
2022-10-01T00:31:58.186Z,3.45
2022-10-01T00:35:00.575Z,3.63
2022-10-01T00:38:02.687Z,4.10
2022-10-01T00:41:05.523Z,4.65
2022-10-01T00:44:27.289Z,4.65
2022-10-01T00:47:33.688Z,4.55
2022-10-01T00:50:38.057Z,4.00
2022-10-01T00:53:40.686Z,4.72
2022-10-01T00:56:44.096Z,4.55
2022-10-01T00:59:46.511Z,4.50
2022-10-01T01:02:50.569Z,4.57
2022-10-01T01:05:52.868Z,4.55
2022-10-01T01:08:55.629Z,5.15
2022-10-01T01:12:02.490Z,4.07
2022-10-01T01:15:15.063Z,4.70
2022-10-01T01:18:22.436Z,5.35
2022-10-01T01:21:30.021Z,5.55
2022-10-01T01:24:48.548Z,5.78
2022-10-01T01:28:03.702Z,5.97
2022-10-01T01:31:08.173Z,5.35
2022-10-01T01:34:14.566Z,5.50
2022-10-01T01:37:19.598Z,5.80
2022-10-01T01:40:25.710Z,5.00
2022-10-01T01:43:33.214Z,4.97
2022-10-01T01:46:38.400Z,5.45
2022-10-01T01:49:41.096Z,5.22
2022-10-01T01:52:43.402Z,4.43
2022-10-01T01:55:49.409Z,4.35
2022-10-01T01:58:53.969Z,4.15
2022-10-01T02:01:58.792Z,4.22
2022-10-01T02:05:03.551Z,3.95
2022-10-01T02:08:30.496Z,4.15
2022-10-01T02:11:38.048Z,4.05
2022-10-01T02:14:47.360Z,3.85
2022-10-01T02:17:54.436Z,3.30
2022-10-01T02:21:01.191Z,4.30
2022-10-01T02:24:08.068Z,4.43
2022-10-01T02:27:22.673Z,4.03
2022-10-01T02:30:27.452Z,4.18
2022-10-01T02:33:32.567Z,4.60
2022-10-01T02:36:36.610Z,3.08
2022-10-01T02:39:43.824Z,4.20
2022-10-01T02:42:49.099Z,4.90
2022-10-01T02:45:57.653Z,4.20
2022-10-01T02:49:02.313Z,4.05
2022-10-01T02:52:09.989Z,4.78
2022-10-01T02:55:14.876Z,3.90
2022-10-01T02:58:18.201Z,3.55
2022-10-01T03:01:22.438Z,4.47
2022-10-01T03:04:24.628Z,3.85
2022-10-01T03:07:28.507Z,3.60
2022-10-01T03:10:30.637Z,3.63
2022-10-01T03:13:32.770Z,3.22
2022-10-01T03:16:36.502Z,3.70
2022-10-01T03:19:39.121Z,3.83
2022-10-01T03:22:41.357Z,3.50
2022-10-01T03:25:43.503Z,3.47
2022-10-01T03:28:45.684Z,3.75
2022-10-01T03:31:49.320Z,3.75
2022-10-01T03:34:51.594Z,3.80
2022-10-01T03:37:53.879Z,3.25
2022-10-01T03:40:56.386Z,2.58
2022-10-01T03:44:00.646Z,3.28
2022-10-01T03:47:05.648Z,2.35
2022-10-01T03:50:09.676Z,3.05
2022-10-01T03:53:12.357Z,2.70
2022-10-01T03:56:14.987Z,3.30
2022-10-01T03:59:17.109Z,1.42
2022-10-01T04:02:21.867Z,2.13
2022-10-01T04:05:32.902Z,1.77
2022-10-01T04:08:35.180Z,1.40
2022-10-01T04:11:41.821Z,1.10
2022-10-01T04:14:46.147Z,1.20
2022-10-01T04:17:50.959Z,0.88
2022-10-01T04:20:53.082Z,1.25
2022-10-01T04:23:59.566Z,0.70
2022-10-01T04:27:04.875Z,0.60
2022-10-01T04:30:10.356Z,0.50
2022-10-01T04:33:16.614Z,0.45
2022-10-01T04:36:51.326Z,0.50
2022-10-01T04:40:00.320Z,0.40
2022-10-01T04:43:03.796Z,0.30
2022-10-01T04:46:08.498Z,0.32
2022-10-01T04:49:12.175Z,0.20
2022-10-01T04:52:26.467Z,0.20
2022-10-01T04:59:49.202Z,0.20
2022-10-01T05:02:54.642Z,0.30
2022-10-01T05:05:58.446Z,0.20
2022-10-01T05:09:00.978Z,0.22
2022-10-01T05:12:03.347Z,0.22
2022-10-01T05:15:06.936Z,0.40
2022-10-01T05:18:09.177Z,0.40
2022-10-01T05:21:15.494Z,0.20
2022-10-01T05:24:17.714Z,0.17
2022-10-01T05:27:19.927Z,0.20
2022-10-01T05:30:31.092Z,0.10
2022-10-01T05:33:34.150Z,0.28
2022-10-01T05:36:37.768Z,0.15
2022-10-01T05:39:40.009Z,0.10
2022-10-01T05:42:45.740Z,0.22
2022-10-01T05:45:48.040Z,0.20
2022-10-01T05:48:51.315Z,0.15
2022-10-01T05:51:55.080Z,0.10
2022-10-01T05:54:57.464Z,0.20
2022-10-01T05:58:01.935Z,0.20
2022-10-01T06:01:06.169Z,1.90
2022-10-01T06:04:10.517Z,0.63
2022-10-01T06:07:14.570Z,0.30
2022-10-01T06:10:20.555Z,0.20
2022-10-01T06:13:33.577Z,0.10
2022-10-01T06:17:17.637Z,0.30
2022-10-01T06:20:26.270Z,0.20
2022-10-01T06:23:45.105Z,0.10
2022-10-01T06:28:30.031Z,0.10
2022-10-01T06:31:37.663Z,0.10
2022-10-01T06:34:40.984Z,0.30
2022-10-01T06:37:43.264Z,0.20
2022-10-01T06:40:51.987Z,0.20
2022-10-01T06:43:54.269Z,0.10
2022-10-01T06:46:56.800Z,0.10
2022-10-01T06:49:59.356Z,0.10
2022-10-01T06:53:02.110Z,0.47
2022-10-01T06:56:06.803Z,0.20
2022-10-01T06:59:08.991Z,0.10
2022-10-01T07:02:21.497Z,0.20
2022-10-01T07:05:24.001Z,0.20
2022-10-01T07:08:26.268Z,0.20
2022-10-01T07:11:29.822Z,0.20
2022-10-01T07:14:32.064Z,0.30
2022-10-01T07:17:35.078Z,0.20
2022-10-01T07:20:39.835Z,0.20
2022-10-01T07:23:42.215Z,0.10
2022-10-01T07:26:45.840Z,0.10
2022-10-01T07:29:48.167Z,0.10
2022-10-01T07:32:50.571Z,0.20
2022-10-01T07:35:52.751Z,0.10
2022-10-01T07:38:55.799Z,0.10
2022-10-01T07:41:59.359Z,0.03
2022-10-01T07:45:04.186Z,0.10
2022-10-01T07:48:07.301Z,0.15
2022-10-01T07:51:11.820Z,0.20
2022-10-01T07:54:14.321Z,0.10
2022-10-01T07:57:18.056Z,1.88
2022-10-01T08:00:20.959Z,0.20
2022-10-01T08:03:23.467Z,0.20
2022-10-01T08:06:25.922Z,0.20
2022-10-01T08:09:28.258Z,0.10
2022-10-01T08:12:31.907Z,0.20
2022-10-01T08:15:34.523Z,0.20
2022-10-01T08:18:37.131Z,0.10
2022-10-01T08:21:39.663Z,0.20
2022-10-01T08:24:41.968Z,0.13
2022-10-01T08:27:45.621Z,0.20
2022-10-01T08:30:47.864Z,0.85
2022-10-01T08:33:50.806Z,0.28
2022-10-01T08:36:53.038Z,0.25
2022-10-01T08:39:56.212Z,0.20
2022-10-01T08:43:06.064Z,0.47
2022-10-01T08:46:13.683Z,0.20
2022-10-01T08:49:18.439Z,0.20
2022-10-01T08:52:22.712Z,0.20
2022-10-01T08:55:27.165Z,0.35
2022-10-01T08:58:34.936Z,0.50
2022-10-01T09:01:37.356Z,0.50
2022-10-01T09:04:40.024Z,0.60
2022-10-01T09:07:51.460Z,0.65
2022-10-01T09:10:57.089Z,0.70
2022-10-01T09:14:17.561Z,1.42
2022-10-01T09:17:32.279Z,0.50
2022-10-01T09:20:37.052Z,0.95
2022-10-01T09:23:45.418Z,0.95
2022-10-01T09:26:49.047Z,0.93
2022-10-01T09:29:55.020Z,0.90
2022-10-01T09:33:01.936Z,1.02
2022-10-01T09:36:13.034Z,0.70
2022-10-01T09:39:20.481Z,0.88
2022-10-01T09:42:26.479Z,0.80
2022-10-01T09:45:30.164Z,0.90
2022-10-01T09:48:41.430Z,1.00
2022-10-01T09:51:46.264Z,1.20
2022-10-01T09:54:54.003Z,1.08
2022-10-01T09:58:01.408Z,1.40
2022-10-01T10:01:13.195Z,1.50
2022-10-01T10:04:20.738Z,2.45
2022-10-01T10:07:22.994Z,2.47
2022-10-01T10:10:27.861Z,3.15
2022-10-01T10:13:39.164Z,2.47
2022-10-01T10:19:51.464Z,3.25
2022-10-01T10:22:54.553Z,3.10
2022-10-01T10:26:00.686Z,3.00
2022-10-01T10:29:05.260Z,3.03
2022-10-01T10:32:15.186Z,3.78
2022-10-01T10:35:19.680Z,3.70
2022-10-01T10:38:29.553Z,4.25
2022-10-01T10:41:32.674Z,2.95
2022-10-01T10:44:39.539Z,3.85
2022-10-01T10:47:47.722Z,3.53
2022-10-01T10:50:50.071Z,3.47
2022-10-01T10:53:52.289Z,3.13
2022-10-01T10:57:00.623Z,3.90
2022-10-01T11:00:12.413Z,2.80
2022-10-01T11:03:18.077Z,3.40
2022-10-01T11:06:20.457Z,2.63
2022-10-01T11:09:23.743Z,3.45
2022-10-01T11:12:38.378Z,3.08
2022-10-01T11:15:53.700Z,2.17
2022-10-01T11:19:15.439Z,3.35
2022-10-01T11:22:36.043Z,2.42
2022-10-01T11:25:43.815Z,2.75
2022-10-01T11:28:53.965Z,2.42
2022-10-01T11:32:04.414Z,2.15
2022-10-01T11:35:42.628Z,3.05
2022-10-01T11:38:51.197Z,2.53
2022-10-01T11:41:56.488Z,2.40
2022-10-01T11:45:04.609Z,3.33
2022-10-01T11:48:10.743Z,2.45
2022-10-01T11:51:16.587Z,3.60
2022-10-01T11:54:23.364Z,2.33
2022-10-01T11:57:44.838Z,2.83
2022-10-01T12:00:57.122Z,2.67
2022-10-01T12:04:09.963Z,2.00
2022-10-01T12:07:18.124Z,2.33
2022-10-01T12:10:33.284Z,1.83
2022-10-01T12:13:40.213Z,2.42
2022-10-01T12:16:46.900Z,2.65
2022-10-01T12:19:51.235Z,3.22
2022-10-01T12:22:56.404Z,2.95
2022-10-01T12:26:06.433Z,2.78
2022-10-01T12:29:14.984Z,3.65
2022-10-01T12:32:24.222Z,3.58
2022-10-01T12:35:41.190Z,2.05
2022-10-01T12:38:56.776Z,2.00
2022-10-01T12:42:10.242Z,1.25
2022-10-01T12:45:22.082Z,1.73
2022-10-01T12:51:38.569Z,1.77
2022-10-01T12:54:53.895Z,2.13
2022-10-01T12:58:02.548Z,1.90
2022-10-01T13:01:11.833Z,2.30
2022-10-01T13:04:33.856Z,2.92
2022-10-01T13:10:50.103Z,2.65
2022-10-01T13:13:54.066Z,2.60
2022-10-01T13:17:01.464Z,3.58
2022-10-01T13:20:10.829Z,3.10
2022-10-01T13:23:18.669Z,3.20
2022-10-01T13:26:28.152Z,3.00
2022-10-01T13:29:44.956Z,3.08
2022-10-01T13:32:51.587Z,3.42
2022-10-01T13:35:56.163Z,4.38
2022-10-01T13:38:58.699Z,2.75
2022-10-01T13:42:05.408Z,3.28
2022-10-01T13:45:20.845Z,3.25
2022-10-01T13:48:25.584Z,3.28
2022-10-01T13:51:34.957Z,3.30
2022-10-01T13:54:40.027Z,2.85
2022-10-01T13:57:43.795Z,3.20
2022-10-01T14:00:48.560Z,3.65
2022-10-01T14:03:57.946Z,3.08
2022-10-01T14:07:16.139Z,3.22
2022-10-01T14:10:18.904Z,3.83
2022-10-01T14:13:41.613Z,3.17
2022-10-01T14:16:45.939Z,4.20
2022-10-01T14:19:50.708Z,3.63
2022-10-01T14:23:08.022Z,3.70
2022-10-01T14:26:17.191Z,4.13
2022-10-01T14:29:31.131Z,3.78
2022-10-01T14:32:43.133Z,3.50
2022-10-01T14:35:48.643Z,3.90
2022-10-01T14:38:50.920Z,4.10
2022-10-01T14:41:57.957Z,3.08
2022-10-01T14:45:14.893Z,2.90
2022-10-01T14:48:19.551Z,3.50
2022-10-01T14:51:25.007Z,3.25
2022-10-01T14:54:27.795Z,3.70
2022-10-01T14:57:34.022Z,3.60
2022-10-01T15:00:42.316Z,4.68
2022-10-01T15:03:45.789Z,3.65
2022-10-01T15:06:48.086Z,4.88
2022-10-01T15:09:51.172Z,3.15
2022-10-01T15:12:54.689Z,3.55
2022-10-01T15:15:58.573Z,2.58
2022-10-01T15:19:02.889Z,2.40
2022-10-01T15:22:08.232Z,1.80
2022-10-01T15:25:26.031Z,1.85
2022-10-01T15:28:31.923Z,2.42
2022-10-01T15:31:36.430Z,1.60
2022-10-01T15:34:44.241Z,1.77
2022-10-01T15:37:50.452Z,1.45
2022-10-01T15:41:19.852Z,1.77
2022-10-01T15:44:42.751Z,2.15
2022-10-01T15:51:25.793Z,1.50
2022-10-01T15:54:28.442Z,1.67
2022-10-01T15:57:37.250Z,2.22
2022-10-01T16:00:48.718Z,1.48
2022-10-01T16:03:55.135Z,1.52
2022-10-01T16:07:00.177Z,1.73
2022-10-01T16:10:49.288Z,2.67
2022-10-01T16:14:20.443Z,1.52
2022-10-01T16:17:29.070Z,2.00
2022-10-01T16:20:46.629Z,1.75
2022-10-01T16:23:54.631Z,2.65
2022-10-01T16:27:08.754Z,2.42
2022-10-01T16:30:18.922Z,2.83
2022-10-01T16:33:26.506Z,1.92
2022-10-01T16:36:32.206Z,2.08
2022-10-01T16:39:34.808Z,2.33
2022-10-01T16:42:42.120Z,2.35
2022-10-01T16:45:49.736Z,2.40
2022-10-01T16:49:55.243Z,1.45
2022-10-01T16:58:31.907Z,1.90
2022-10-01T17:01:39.818Z,2.28
2022-10-01T17:04:44.638Z,1.77
2022-10-01T17:07:50.155Z,2.53
2022-10-01T17:10:58.430Z,2.60
2022-10-01T17:14:04.602Z,2.15
2022-10-01T17:17:06.989Z,2.20
2022-10-01T17:20:09.799Z,2.15
2022-10-01T17:23:16.650Z,1.75
2022-10-01T17:26:18.852Z,2.50
2022-10-01T17:29:22.368Z,1.95
2022-10-01T17:32:24.590Z,2.42
2022-10-01T17:35:27.933Z,2.42
2022-10-01T17:38:30.360Z,3.20
2022-10-01T17:41:32.669Z,3.28
2022-10-01T17:44:36.279Z,2.40
2022-10-01T17:47:43.956Z,2.88
2022-10-01T17:50:46.161Z,2.45
2022-10-01T17:53:48.485Z,2.67
2022-10-01T17:56:52.449Z,3.03
2022-10-01T17:59:56.312Z,2.80
2022-10-01T18:03:00.853Z,2.30
2022-10-01T18:06:03.825Z,3.17
2022-10-01T18:09:06.090Z,2.72
2022-10-01T18:12:10.897Z,2.67
2022-10-01T18:15:25.724Z,4.70
2022-10-01T18:21:51.049Z,2.75
2022-10-01T18:24:53.493Z,3.65
2022-10-01T18:27:57.323Z,2.40
2022-10-01T18:31:17.302Z,2.08
2022-10-01T18:34:24.419Z,2.60
2022-10-01T18:37:37.745Z,2.28
2022-10-01T18:40:44.151Z,1.80
2022-10-01T18:43:46.584Z,2.03
2022-10-01T18:47:05.111Z,2.38
2022-10-01T18:50:21.659Z,4.05
2022-10-01T18:53:38.220Z,5.93
2022-10-01T18:56:44.799Z,5.28
2022-10-01T19:00:07.324Z,3.65
2022-10-01T19:03:26.279Z,3.15
2022-10-01T19:06:40.955Z,2.65
2022-10-01T19:09:51.897Z,2.60
2022-10-01T19:12:58.353Z,3.42
2022-10-01T19:16:06.688Z,3.58
2022-10-01T19:19:24.527Z,4.03
2022-10-01T19:22:33.559Z,2.58
2022-10-01T19:25:43.887Z,3.65
2022-10-01T19:28:56.297Z,2.50
2022-10-01T19:32:01.263Z,2.30
2022-10-01T19:35:07.185Z,3.33
2022-10-01T19:38:13.754Z,2.63
2022-10-01T19:41:28.392Z,2.63
2022-10-01T19:44:33.394Z,2.38
2022-10-01T19:47:40.157Z,2.75
2022-10-01T19:50:52.562Z,2.78
2022-10-01T19:54:00.142Z,2.03
2022-10-01T19:57:08.692Z,3.47
2022-10-01T20:00:17.991Z,3.20
2022-10-01T20:03:25.519Z,3.35
2022-10-01T20:06:31.337Z,3.42
2022-10-01T20:09:41.183Z,3.80
2022-10-01T20:12:48.410Z,3.83
2022-10-01T20:15:58.450Z,3.42
2022-10-01T20:19:06.956Z,4.30
2022-10-01T20:22:21.894Z,3.63
2022-10-01T20:25:41.838Z,4.65
2022-10-01T20:29:01.341Z,5.45
2022-10-01T20:32:13.259Z,4.82
2022-10-01T20:35:27.333Z,6.10
2022-10-01T20:38:35.325Z,4.47
2022-10-01T20:41:42.538Z,4.50
2022-10-01T20:44:44.944Z,4.50
2022-10-01T20:47:51.411Z,4.90
2022-10-01T20:50:59.755Z,3.42
2022-10-01T20:54:07.987Z,4.28
2022-10-01T20:57:14.928Z,4.53
2022-10-01T21:00:19.572Z,4.70
2022-10-01T21:03:25.537Z,4.63
2022-10-01T21:06:33.963Z,5.07
2022-10-01T21:09:40.923Z,4.53
2022-10-01T21:12:45.962Z,6.20
2022-10-01T21:15:54.924Z,5.80
2022-10-01T21:19:08.649Z,5.00
2022-10-01T21:22:21.408Z,5.13
2022-10-01T21:25:31.044Z,5.28
2022-10-01T21:28:47.218Z,6.68
2022-10-01T21:31:59.127Z,4.93
2022-10-01T21:38:11.262Z,4.90
2022-10-01T21:41:29.129Z,3.88
2022-10-01T21:44:56.484Z,4.18
2022-10-01T21:48:11.220Z,4.13
2022-10-01T21:51:24.167Z,3.53
2022-10-01T21:54:58.260Z,12.00
2022-10-01T21:58:20.017Z,6.13
2022-10-01T22:01:28.773Z,3.85
2022-10-01T22:04:36.218Z,3.67
2022-10-01T22:07:41.679Z,3.17
2022-10-01T22:10:46.222Z,2.70
2022-10-01T22:13:52.206Z,2.50
2022-10-01T22:16:57.346Z,2.25
2022-10-01T22:20:02.894Z,3.20
2022-10-01T22:23:09.562Z,2.35
2022-10-01T22:26:16.152Z,3.78
2022-10-01T22:29:23.438Z,2.70
2022-10-01T22:32:29.125Z,3.40
2022-10-01T22:35:36.189Z,2.30
2022-10-01T22:38:44.989Z,1.88
2022-10-01T22:41:53.921Z,3.70
2022-10-01T22:45:01.470Z,8.40
2022-10-01T22:48:19.117Z,2.63
2022-10-01T22:51:46.560Z,3.10
2022-10-01T22:54:54.479Z,2.35
2022-10-01T22:58:16.629Z,1.90
2022-10-01T23:01:30.390Z,2.05
2022-10-01T23:04:41.944Z,2.20
2022-10-01T23:07:53.018Z,2.72
2022-10-01T23:11:02.175Z,2.20
2022-10-01T23:14:08.366Z,1.80
2022-10-01T23:17:16.375Z,2.33
2022-10-01T23:20:28.664Z,2.30
2022-10-01T23:23:32.324Z,3.00
2022-10-01T23:26:42.936Z,3.03
2022-10-01T23:29:58.538Z,4.00
2022-10-01T23:33:10.993Z,2.67
2022-10-01T23:36:24.874Z,3.72
2022-10-01T23:39:40.947Z,3.03
2022-10-01T23:42:49.140Z,3.40
2022-10-01T23:45:57.179Z,2.38
2022-10-01T23:49:05.319Z,2.28
2022-10-01T23:52:13.321Z,2.80
2022-10-01T23:55:38.579Z,2.28
2022-10-01T23:58:44.012Z,2.45
